createdAt,value
2018-06-30T00:01:20.614Z,22.50
2018-06-30T00:03:55.811Z,22.30
2018-06-30T00:06:30.268Z,22.10
2018-06-30T00:09:03.420Z,21.90
2018-06-30T00:11:36.548Z,22.00
2018-06-30T00:14:09.423Z,22.10
2018-06-30T00:16:42.334Z,22.10
2018-06-30T00:19:15.278Z,22.20
2018-06-30T00:21:48.234Z,22.20
2018-06-30T00:24:21.306Z,22.20
2018-06-30T00:26:57.770Z,22.00
2018-06-30T00:29:30.734Z,22.00
2018-06-30T00:32:03.743Z,22.20
2018-06-30T00:34:36.726Z,22.30
2018-06-30T00:37:09.652Z,22.40
2018-06-30T00:39:42.717Z,22.30
2018-06-30T00:42:15.642Z,22.30
2018-06-30T00:44:48.682Z,22.30
2018-06-30T00:47:21.834Z,22.40
2018-06-30T00:49:54.770Z,22.50
2018-06-30T00:52:27.893Z,22.20
2018-06-30T00:55:00.812Z,22.10
2018-06-30T00:57:33.887Z,21.90
2018-06-30T01:00:06.805Z,21.80
2018-06-30T01:02:39.728Z,21.70
2018-06-30T01:05:12.757Z,21.60
2018-06-30T01:07:45.878Z,21.60
2018-06-30T01:10:18.958Z,21.60
2018-06-30T01:12:51.834Z,21.70
2018-06-30T01:15:24.905Z,21.60
2018-06-30T01:17:57.979Z,21.70
2018-06-30T01:20:31.043Z,21.60
2018-06-30T01:23:04.041Z,21.90
2018-06-30T01:25:37.105Z,22.00
2018-06-30T01:28:10.241Z,21.80
2018-06-30T01:30:43.253Z,21.90
2018-06-30T01:33:16.115Z,22.00
2018-06-30T01:35:49.086Z,21.90
2018-06-30T01:38:22.155Z,21.80
2018-06-30T01:40:55.205Z,21.70
2018-06-30T01:43:28.123Z,21.70
2018-06-30T01:46:01.082Z,21.60
2018-06-30T01:48:34.140Z,21.50
2018-06-30T01:51:07.068Z,21.50
2018-06-30T01:53:40.050Z,21.30
2018-06-30T01:56:12.923Z,21.30
2018-06-30T01:58:46.016Z,21.20
2018-06-30T02:01:19.691Z,21.10
2018-06-30T02:03:52.810Z,21.00
2018-06-30T02:06:25.974Z,21.00
2018-06-30T02:08:58.983Z,20.80
2018-06-30T02:11:31.868Z,20.70
2018-06-30T02:14:04.874Z,20.80
2018-06-30T02:16:38.063Z,20.80
2018-06-30T02:19:11.167Z,20.70
2018-06-30T02:21:44.213Z,20.60
2018-06-30T02:24:17.162Z,20.60
2018-06-30T02:26:50.109Z,20.50
2018-06-30T02:29:23.206Z,20.30
2018-06-30T02:31:56.248Z,20.10
2018-06-30T03:11:39.565Z,19.20
2018-06-30T03:14:13.687Z,19.20
2018-06-30T03:16:53.554Z,19.20
2018-06-30T03:19:26.511Z,19.20
2018-06-30T03:22:00.764Z,19.20
2018-06-30T03:24:35.409Z,19.20
2018-06-30T03:27:09.271Z,19.10
2018-06-30T03:29:42.257Z,19.10
2018-06-30T03:32:17.197Z,19.10
2018-06-30T03:34:50.895Z,19.10
2018-06-30T03:37:24.174Z,19.10
2018-06-30T03:39:57.894Z,19.00
2018-06-30T03:42:31.074Z,19.00
2018-06-30T03:45:04.354Z,19.00
2018-06-30T03:47:37.653Z,18.90
2018-06-30T03:50:10.906Z,18.80
2018-06-30T03:52:44.230Z,18.80
2018-06-30T03:55:22.018Z,18.70
2018-06-30T03:57:55.579Z,18.70
2018-06-30T04:00:30.520Z,18.60
2018-06-30T04:03:05.211Z,18.60
2018-06-30T04:05:39.380Z,18.60
2018-06-30T04:08:12.651Z,18.50
2018-06-30T04:10:46.566Z,18.50
2018-06-30T04:13:19.921Z,18.40
2018-06-30T04:15:53.091Z,18.30
2018-06-30T04:18:26.381Z,18.30
2018-06-30T04:21:01.785Z,18.40
2018-06-30T04:23:34.987Z,18.30
2018-06-30T04:26:09.167Z,18.30
2018-06-30T04:36:58.874Z,18.10
2018-06-30T04:39:32.234Z,18.10
2018-06-30T04:42:05.615Z,17.90
2018-06-30T04:44:38.744Z,17.80
2018-06-30T04:47:12.796Z,17.70
2018-06-30T04:49:46.993Z,17.60
2018-06-30T04:52:21.191Z,17.50
2018-06-30T04:54:55.317Z,17.40
2018-06-30T04:57:29.891Z,17.30
2018-06-30T05:00:05.493Z,17.30
2018-06-30T05:02:39.415Z,17.30
2018-06-30T05:05:13.474Z,17.30
2018-06-30T05:07:48.642Z,17.30
2018-06-30T05:10:22.686Z,17.30
2018-06-30T05:12:56.827Z,17.30
2018-06-30T05:15:30.787Z,17.30
2018-06-30T05:18:04.955Z,17.20
2018-06-30T05:20:38.854Z,17.20
2018-06-30T05:23:15.323Z,17.20
2018-06-30T05:25:49.160Z,17.20
2018-06-30T05:28:23.100Z,17.20
2018-06-30T05:30:58.292Z,17.20
2018-06-30T05:33:33.425Z,17.20
2018-06-30T05:36:07.497Z,17.20
2018-06-30T05:38:41.326Z,17.20
2018-06-30T05:41:15.023Z,17.20
2018-06-30T05:43:48.681Z,17.20
2018-06-30T05:46:23.400Z,17.20
2018-06-30T05:48:56.825Z,17.20
2018-06-30T05:51:30.157Z,17.20
2018-06-30T05:54:03.615Z,17.10
2018-06-30T05:56:37.041Z,17.10
2018-06-30T05:59:10.547Z,17.20
2018-06-30T06:01:44.249Z,17.10
2018-06-30T06:04:17.652Z,17.10
2018-06-30T06:06:51.745Z,17.10
2018-06-30T06:09:24.967Z,17.00
2018-06-30T06:12:03.269Z,17.10
2018-06-30T06:14:36.658Z,17.10
2018-06-30T06:17:10.417Z,17.00
2018-06-30T06:19:43.806Z,17.00
2018-06-30T06:22:17.597Z,17.10
2018-06-30T06:24:50.826Z,17.10
2018-06-30T06:27:24.283Z,17.10
2018-06-30T06:29:58.011Z,17.10
2018-06-30T06:32:31.488Z,17.10
2018-06-30T06:35:04.882Z,17.20
2018-06-30T06:37:41.968Z,17.10
2018-06-30T06:40:21.331Z,17.10
2018-06-30T06:42:55.348Z,17.10
2018-06-30T06:45:28.633Z,17.10
2018-06-30T06:48:02.100Z,17.10
2018-06-30T06:50:35.642Z,17.10
2018-06-30T06:53:09.183Z,17.10
2018-06-30T06:55:42.538Z,17.10
2018-06-30T06:58:15.957Z,17.10
2018-06-30T07:00:49.215Z,17.00
2018-06-30T07:03:24.220Z,17.00
2018-06-30T07:05:57.571Z,17.00
2018-06-30T07:08:30.809Z,17.00
2018-06-30T07:11:04.439Z,17.00
2018-06-30T07:13:37.685Z,17.00
2018-06-30T07:16:11.760Z,16.90
2018-06-30T07:18:44.983Z,16.90
2018-06-30T07:21:18.029Z,16.90
2018-06-30T07:23:51.387Z,16.90
2018-06-30T07:26:25.642Z,16.90
2018-06-30T07:28:58.724Z,16.80
2018-06-30T07:31:32.097Z,16.80
2018-06-30T07:34:05.455Z,16.70
2018-06-30T07:36:38.779Z,16.70
2018-06-30T07:39:13.153Z,16.70
2018-06-30T07:41:46.295Z,16.70
2018-06-30T07:44:19.406Z,16.60
2018-06-30T15:36:31.763Z,14.50
2018-06-30T15:39:06.430Z,14.40
2018-06-30T15:41:43.866Z,14.50
2018-06-30T15:44:18.451Z,14.60
2018-06-30T15:46:55.703Z,14.70
2018-06-30T15:49:30.321Z,14.90
2018-06-30T15:52:05.193Z,15.00
2018-06-30T15:54:38.275Z,15.20
2018-06-30T15:57:11.356Z,14.90
2018-06-30T15:59:44.588Z,15.00
2018-06-30T16:02:18.265Z,15.10
2018-06-30T16:04:51.458Z,15.20
2018-06-30T16:07:24.609Z,15.50
2018-06-30T16:09:57.787Z,15.70
2018-06-30T16:12:30.918Z,15.90
2018-06-30T16:15:04.198Z,15.80
2018-06-30T16:17:37.624Z,15.70
2018-06-30T16:20:10.888Z,15.90
2018-06-30T16:22:43.994Z,16.20
2018-06-30T16:25:17.052Z,15.90
2018-06-30T16:27:50.122Z,15.80
2018-06-30T16:30:23.266Z,15.70
2018-06-30T16:32:56.430Z,15.80
2018-06-30T16:35:29.660Z,15.70
2018-06-30T16:38:03.084Z,15.60
2018-06-30T16:40:36.145Z,15.80
2018-06-30T16:43:09.213Z,15.90
2018-06-30T16:45:42.568Z,15.70
2018-06-30T16:48:15.693Z,15.90
2018-06-30T16:50:48.893Z,16.10
2018-06-30T16:53:22.030Z,16.30
2018-06-30T16:55:55.039Z,16.20
2018-06-30T16:58:28.191Z,16.20
2018-06-30T17:01:01.384Z,16.20
2018-06-30T17:03:34.604Z,16.00
2018-06-30T17:06:07.971Z,15.90
2018-06-30T17:08:40.958Z,16.00
2018-06-30T17:11:14.099Z,16.00
2018-06-30T17:13:47.338Z,15.90
2018-06-30T17:16:20.580Z,15.60
2018-06-30T17:18:53.674Z,15.90
2018-06-30T17:21:26.738Z,15.80
2018-06-30T17:24:00.056Z,15.90
2018-06-30T17:26:33.267Z,15.60
2018-06-30T17:29:06.289Z,15.90
2018-06-30T17:31:39.458Z,16.30
2018-06-30T17:34:13.166Z,16.40
2018-06-30T17:36:46.364Z,16.70
2018-06-30T17:39:19.331Z,16.60
2018-06-30T17:41:53.400Z,16.40
2018-06-30T17:44:27.480Z,16.10
2018-06-30T17:47:01.580Z,16.00
2018-06-30T17:52:20.485Z,16.30
2018-06-30T17:54:54.679Z,16.50
2018-06-30T17:57:27.911Z,16.50
2018-06-30T18:00:03.178Z,16.10
2018-06-30T18:02:36.666Z,16.20
2018-06-30T18:05:10.854Z,16.20
2018-06-30T18:07:45.480Z,16.10
2018-06-30T18:10:24.708Z,16.10
2018-06-30T18:12:59.228Z,16.20
2018-06-30T18:15:40.612Z,16.20
2018-06-30T18:18:15.105Z,16.40
2018-06-30T18:20:50.958Z,16.30
2018-06-30T18:23:26.132Z,16.50
2018-06-30T18:25:59.458Z,16.90
2018-06-30T18:28:32.683Z,16.90
2018-06-30T18:31:05.792Z,16.80
2018-06-30T18:33:38.853Z,16.80
2018-06-30T18:36:12.147Z,16.90
2018-06-30T18:38:54.525Z,17.10
2018-06-30T18:41:28.834Z,17.10
2018-06-30T18:44:01.980Z,17.20
2018-06-30T18:46:35.131Z,17.20
2018-06-30T18:49:08.285Z,17.30
2018-06-30T18:51:41.731Z,17.20
2018-06-30T18:54:14.920Z,17.20
2018-06-30T18:56:48.042Z,17.40
2018-06-30T18:59:21.057Z,17.60
2018-06-30T19:01:54.193Z,17.80
2018-06-30T19:04:27.329Z,17.20
2018-06-30T19:07:03.653Z,17.00
2018-06-30T19:09:36.837Z,17.10
2018-06-30T19:12:10.144Z,17.00
2018-06-30T19:14:43.388Z,16.90
2018-06-30T19:17:16.577Z,17.00
2018-06-30T19:19:50.004Z,17.00
2018-06-30T19:22:23.198Z,16.70
2018-06-30T19:24:57.262Z,16.70
2018-06-30T19:27:30.539Z,17.00
2018-06-30T19:30:03.661Z,17.10
2018-06-30T19:32:36.803Z,17.40
2018-06-30T19:35:09.871Z,17.70
2018-06-30T19:37:43.015Z,18.00
2018-06-30T19:40:16.048Z,18.20
2018-06-30T19:42:49.190Z,18.20
2018-06-30T19:45:22.212Z,18.40
2018-06-30T19:47:56.166Z,18.40
2018-06-30T19:50:29.509Z,18.30
2018-06-30T19:53:02.737Z,18.20
2018-06-30T19:55:35.828Z,18.30
2018-06-30T19:58:09.024Z,18.10
2018-06-30T20:00:42.265Z,17.40
2018-06-30T20:03:16.055Z,17.10
2018-06-30T20:05:49.344Z,17.20
2018-06-30T20:08:22.681Z,17.20
2018-06-30T20:10:55.835Z,17.40
2018-06-30T20:13:28.965Z,17.50
2018-06-30T20:16:02.395Z,17.50
2018-06-30T20:18:41.762Z,17.50
2018-06-30T20:21:15.032Z,17.60
2018-06-30T20:23:58.279Z,17.50
2018-06-30T20:26:34.742Z,17.50
2018-06-30T20:29:09.404Z,17.30
2018-06-30T20:31:42.632Z,17.20
2018-06-30T20:34:18.042Z,17.10
2018-06-30T20:36:51.262Z,17.30
2018-06-30T20:39:25.578Z,17.40
2018-06-30T20:41:58.822Z,17.10
2018-06-30T20:44:32.170Z,17.00
2018-06-30T20:47:05.429Z,16.80
2018-06-30T20:49:38.765Z,16.80
2018-06-30T20:52:11.973Z,16.80
2018-06-30T20:54:45.488Z,16.90
2018-06-30T20:57:18.862Z,16.80
2018-06-30T20:59:52.079Z,16.80
2018-06-30T21:02:25.246Z,17.00
2018-06-30T21:04:58.349Z,17.00
2018-06-30T21:07:31.413Z,16.90
2018-06-30T21:10:04.512Z,16.80
2018-06-30T21:12:37.538Z,16.60
2018-06-30T21:15:10.576Z,16.70
2018-06-30T21:17:43.693Z,16.70
2018-06-30T21:20:16.735Z,16.70
2018-06-30T21:22:51.288Z,16.80
2018-06-30T21:25:24.626Z,16.70
2018-06-30T21:27:58.418Z,16.60
2018-06-30T21:30:31.990Z,16.50
2018-06-30T21:33:05.601Z,16.30
2018-06-30T21:35:50.324Z,16.50
2018-06-30T21:38:24.132Z,16.60
2018-06-30T21:40:57.390Z,16.70
2018-06-30T21:43:30.905Z,16.80
2018-06-30T21:46:04.553Z,16.90
2018-06-30T21:48:38.302Z,16.60
2018-06-30T21:51:11.739Z,16.50
2018-06-30T21:53:45.414Z,16.40
2018-06-30T21:56:18.997Z,16.30
2018-06-30T21:58:53.145Z,16.10
2018-06-30T22:01:27.822Z,15.90
2018-06-30T22:04:01.502Z,15.80
2018-06-30T22:06:35.668Z,15.80
2018-06-30T22:09:12.543Z,16.00
2018-06-30T22:11:45.935Z,16.00
2018-06-30T22:14:19.772Z,16.00
2018-06-30T22:16:53.333Z,15.90
2018-06-30T22:19:27.182Z,15.90
2018-06-30T22:22:01.109Z,15.90
2018-06-30T22:24:35.116Z,16.00
2018-06-30T22:27:08.879Z,16.00
2018-06-30T22:29:42.167Z,16.10
2018-06-30T22:32:15.803Z,16.10
2018-06-30T22:34:49.571Z,15.90
2018-06-30T22:37:23.015Z,15.90
2018-06-30T22:40:05.265Z,15.90
2018-06-30T22:42:38.634Z,16.10
2018-06-30T22:45:12.359Z,16.30
2018-06-30T22:47:46.161Z,16.50
2018-06-30T22:50:20.825Z,16.40
2018-06-30T22:52:55.040Z,16.50
2018-06-30T22:55:28.720Z,16.50
2018-06-30T22:58:02.489Z,16.50
2018-06-30T23:00:36.250Z,16.50
2018-06-30T23:03:14.619Z,16.60
2018-06-30T23:05:48.191Z,16.40
2018-06-30T23:08:21.618Z,16.60
2018-06-30T23:10:54.812Z,16.70
2018-06-30T23:13:27.909Z,16.50
2018-06-30T23:16:00.963Z,16.30
2018-06-30T23:18:34.220Z,16.20
2018-06-30T23:21:07.337Z,16.30
2018-06-30T23:23:40.524Z,16.40
2018-06-30T23:26:13.563Z,16.40
2018-06-30T23:28:46.871Z,16.40
2018-06-30T23:31:20.012Z,16.50
2018-06-30T23:34:26.940Z,16.50
2018-06-30T23:37:00.163Z,16.50
2018-06-30T23:39:33.327Z,16.40
2018-06-30T23:42:06.386Z,16.50
2018-06-30T23:44:39.638Z,16.60
2018-06-30T23:47:12.860Z,16.60
2018-06-30T23:49:46.001Z,16.60
2018-06-30T23:52:19.266Z,16.60
2018-06-30T23:54:52.286Z,16.50
2018-06-30T23:57:25.560Z,16.40
2018-06-30T23:59:58.719Z,16.30
